Mary Alice II — WDE3827 — position and weather

sailwx.info

Track history (hours):
 
Tides and Currents Weather Stations Pressure Air Temp Water Temp Dewpoint Dewpoint Depression Visibility Wind Speed Wind Dir Waves Ship Positions

Mary Alice II

Owner: Lakeshore Drive Investment, Rollins, MT. More information available from US FCC via Universal Licensing System and Coast Guard Vessel Documentation Center.

Last reported at 2017-Jun-03 22:18 UTC. Time now 2017-Jul-22 00:29 UTC.
Position N 52°09' W 128°08'.
Warning: this ship's position is 48 days out of date.

Length 40 m; draft 2.2 m.

Type: Pleasure craft. MMSI: 367344710.

Date/timePositionNaut miles runAvg speedWind from/ knotsBaromVisibWave heightAir tempDewpointWater temp
2017-Jun-03 22:18N 52°09' W 128°08'910.9
2017-Jun-03 21:27N 52°04' W 127°55'611.9
2017-Jun-03 20:58N 51°58' W 127°56'612.7
2017-Jun-03 20:30N 51°52' W 127°56'713.4
2017-Jun-03 20:00N 51°46' W 127°56'613.0
2017-Jun-03 19:31N 51°39' W 127°54'713.2
2017-Jun-03 19:00N 51°33' W 127°51'2013.3
2017-Jun-03 17:28N 51°12' W 127°51'613.6
2017-Jun-03 17:00N 51°06' W 127°50'713.9
2017-Jun-03 16:30N 50°60' W 127°46'612.9
2017-Jun-03 16:00N 50°55' W 127°39'713.6
2017-Jun-03 15:30N 50°51' W 127°30'713.2
2017-Jun-03 15:00N 50°47' W 127°22'1512.9
2017-Jun-03 13:52N 50°37' W 127°05'1 0.1
2017-Jun-02 20:35N 50°36' W 127°05'0 2.7
2017-Jun-02 20:29N 50°36' W 127°05'4 8.1
2017-Jun-02 20:00N 50°36' W 126°59'812.6
2017-Jun-02 19:23N 50°33' W 126°47'5312.4
2017-Jun-02 15:05N 50°20' W 125°26'212.0
2017-Jun-02 14:57N 50°19' W 125°25'1112.1
2017-Jun-02 14:00N 50°08' W 125°21'612.6
2017-Jun-02 13:30N 50°04' W 125°14'0 0.0
2017-Jun-02 12:59N 50°04' W 125°14'0 0.0
2017-Jun-02 12:26N 50°04' W 125°14'0 0.0
2017-Jun-02 11:56N 50°04' W 125°14'0 0.0
2017-Jun-02 11:26N 50°04' W 125°14'0 0.0
2017-Jun-02 10:59N 50°04' W 125°14'0 0.0
2017-Jun-02 10:26N 50°04' W 125°14'0 0.0
2017-Jun-02 09:56N 50°04' W 125°14'0 0.0
2017-Jun-02 09:29N 50°04' W 125°14'0 0.0
2017-Jun-02 08:59N 50°04' W 125°14'0 0.0
2017-Jun-02 08:29N 50°04' W 125°14'0 0.0
2017-Jun-02 07:59N 50°04' W 125°14'0 0.0
2017-Jun-02 07:29N 50°04' W 125°14'0 0.0
2017-Jun-02 06:59N 50°04' W 125°14'0 0.0
2017-Jun-02 06:29N 50°04' W 125°14'0 0.0
2017-Jun-02 05:59N 50°04' W 125°14'0 0.0
2017-Jun-02 05:29N 50°04' W 125°14'0 0.0
2017-Jun-02 04:59N 50°04' W 125°14'0 0.0
2017-Jun-02 04:29N 50°04' W 125°14'0 0.0
2017-Jun-02 03:59N 50°04' W 125°14'0 0.0
2017-Jun-02 03:26N 50°04' W 125°14'0 0.0
2017-Jun-02 02:56N 50°04' W 125°14'0 0.0
2017-Jun-02 02:29N 50°04' W 125°14'0 0.0
2017-Jun-02 01:59N 50°04' W 125°14'0 0.0
2017-Jun-02 01:26N 50°04' W 125°14'0 0.0
2017-Jun-02 00:56N 50°04' W 125°14'0 0.0
2017-Jun-02 00:26N 50°04' W 125°14'0 0.0
2017-Jun-01 23:59N 50°04' W 125°14'0 0.0
2017-Jun-01 23:29N 50°04' W 125°14'0 0.0
2017-Jun-01 22:56N 50°04' W 125°14'0 0.0
2017-Jun-01 22:29N 50°04' W 125°14'0 0.0
2017-Jun-01 22:00N 50°04' W 125°14'1 1.5
2017-Jun-01 21:30N 50°04' W 125°15'714.5
2017-Jun-01 21:00N 49°57' W 125°10'713.2
2017-Jun-01 20:30N 49°53' W 125°02'612.7
2017-Jun-01 20:00N 49°48' W 124°55'713.5
2017-Jun-01 19:30N 49°44' W 124°47'713.5
2017-Jun-01 19:00N 49°41' W 124°38'713.3
2017-Jun-01 18:29N 49°37' W 124°30'52 2.6
2017-May-31 22:19N 49°03' W 123°29'414.1
2017-May-31 22:00N 49°00' W 123°24'1213.4
2017-May-31 21:07N 48°53' W 123°09'213.2
2017-May-31 20:59N 48°52' W 123°08'611.5
2017-May-31 20:28N 48°47' W 123°01'612.1
2017-May-31 20:00N 48°44' W 123°08'611.2
2017-May-31 19:30N 48°41' W 123°15'611.5
2017-May-31 19:00N 48°35' W 123°13'510.8
2017-May-31 18:30N 48°30' W 123°09'611.2
2017-May-31 18:00N 48°26' W 123°04'1012.9
2017-May-31 17:14N 48°18' W 122°56'512.6
2017-May-31 16:52N 48°14' W 122°52'1612.1
2017-May-31 15:33N 48°01' W 122°37'212.9
2017-May-31 15:24N 47°60' W 122°35'512.4
2017-May-31 15:00N 47°56' W 122°30'612.8
2017-May-31 14:30N 47°50' W 122°27'10 9.6
2017-May-31 13:30N 47°41' W 122°24'0 0.0
2017-May-31 13:00N 47°41' W 122°24'0 0.0
2017-May-31 12:30N 47°41' W 122°24'0 0.0
2017-May-31 12:00N 47°41' W 122°24'0 0.0
2017-May-31 11:27N 47°41' W 122°24'0 0.0
2017-May-31 10:57N 47°41' W 122°24'0 0.0
2017-May-31 10:30N 47°41' W 122°24'0 0.0
2017-May-31 10:00N 47°41' W 122°24'0 0.0
2017-May-31 09:30N 47°41' W 122°24'0 0.0
2017-May-31 09:00N 47°41' W 122°24'0 0.0
2017-May-31 08:30N 47°41' W 122°24'0 0.0
2017-May-31 08:00N 47°41' W 122°24'0 0.0
2017-May-31 07:30N 47°41' W 122°24'0 0.0
2017-May-31 07:00N 47°41' W 122°24'0 0.0
2017-May-31 06:30N 47°41' W 122°24'0 0.0
2017-May-31 06:00N 47°41' W 122°24'0 0.0
2017-May-31 05:30N 47°41' W 122°24'0 0.0
2017-May-31 05:00N 47°41' W 122°24'0 0.0
2017-May-31 04:30N 47°41' W 122°24'0 0.0
2017-May-31 04:00N 47°41' W 122°24'0 0.0
2017-May-31 03:30N 47°41' W 122°24'0 0.0
2017-May-31 03:00N 47°41' W 122°24'0 0.0
2017-May-31 02:30N 47°41' W 122°24'0 0.0
2017-May-31 02:00N 47°41' W 122°24'0 0.0
2017-May-31 01:30N 47°41' W 122°24'0 0.0
2017-May-31 01:00N 47°41' W 122°24'0 0.0
2017-May-31 00:30N 47°41' W 122°24'0 0.0
2017-May-31 00:00N 47°41' W 122°24'0 0.0
2017-May-30 23:30N 47°41' W 122°24'0 0.0
2017-May-30 23:00N 47°41' W 122°24'0 0.0
2017-May-30 22:30N 47°41' W 122°24'0 0.0
2017-May-30 22:00N 47°41' W 122°24'0 0.0
2017-May-30 21:30N 47°41' W 122°24'0 0.0
2017-May-30 21:00N 47°41' W 122°24'0 0.1
2017-May-30 20:30N 47°41' W 122°24'0 0.0
2017-May-30 20:00N 47°41' W 122°24'0 0.0
2017-May-30 19:30N 47°41' W 122°24'0 0.0
2017-May-30 19:00N 47°41' W 122°24'0 0.0
2017-May-30 18:30N 47°41' W 122°24'0 0.0
2017-May-30 18:00N 47°41' W 122°24'0 0.0
2017-May-30 17:30N 47°41' W 122°24'0 0.0
2017-May-30 17:00N 47°41' W 122°24'0 0.0
2017-May-30 16:30N 47°41' W 122°24'0 0.0
2017-May-30 16:00N 47°41' W 122°24'0 0.1
2017-May-30 15:30N 47°41' W 122°24'0 0.0
2017-May-30 15:00N 47°41' W 122°24'0 0.0
2017-May-30 14:00N 47°41' W 122°24'0 0.0
2017-May-30 13:30N 47°41' W 122°24'0 0.0
2017-May-30 13:00N 47°41' W 122°24'0 0.0
2017-May-30 12:30N 47°41' W 122°24'0 0.0
2017-May-30 12:00N 47°41' W 122°24'0 0.0
2017-May-30 11:30N 47°41' W 122°24'0 0.0
2017-May-30 11:00N 47°41' W 122°24'0 0.0
2017-May-30 10:30N 47°41' W 122°24'0 0.0
2017-May-30 10:00N 47°41' W 122°24'0 0.0
2017-May-30 09:30N 47°41' W 122°24'0 0.0
2017-May-30 09:00N 47°41' W 122°24'0 0.0
2017-May-30 08:30N 47°41' W 122°24'0 0.0
2017-May-30 08:00N 47°41' W 122°24'0 0.0
2017-May-30 07:30N 47°41' W 122°24'0 0.0
2017-May-30 07:00N 47°41' W 122°24'0 0.0
2017-May-30 06:30N 47°41' W 122°24'0 0.0
2017-May-30 06:00N 47°41' W 122°24'0 0.0
2017-May-30 05:30N 47°41' W 122°24'0 0.0
2017-May-30 05:00N 47°41' W 122°24'0 0.0
2017-May-30 04:30N 47°41' W 122°24'0 0.0
2017-May-30 04:00N 47°41' W 122°24'0 0.0
2017-May-30 03:30N 47°41' W 122°24'0 0.0
2017-May-30 03:00N 47°41' W 122°24'0 0.0
2017-May-30 02:30N 47°41' W 122°24'0 0.0
2017-May-30 02:00N 47°41' W 122°24'0 0.0
2017-May-30 01:30N 47°41' W 122°24'0 0.0
2017-May-30 01:00N 47°41' W 122°24'0 0.0
2017-May-30 00:30N 47°41' W 122°24'0 0.0
2017-May-30 00:00N 47°41' W 122°24'0 0.0
2017-May-29 23:30N 47°41' W 122°24'0 0.0
2017-May-29 23:00N 47°41' W 122°24'0 0.0
2017-May-29 22:30N 47°41' W 122°24'0 0.0
2017-May-29 22:00N 47°41' W 122°24'0 0.0
2017-May-29 21:30N 47°41' W 122°24'0 0.0
2017-May-29 21:00N 47°41' W 122°24'0 0.0
2017-May-29 20:30N 47°41' W 122°24'0 0.0
2017-May-29 20:00N 47°41' W 122°24'0 0.0
2017-May-29 19:30N 47°41' W 122°24'0 0.0
2017-May-29 19:00N 47°41' W 122°24'0 0.0
2017-May-29 18:30N 47°41' W 122°24'0 0.0
2017-May-29 18:00N 47°41' W 122°24'0 0.0
2017-May-29 17:30N 47°41' W 122°24'0 0.0
2017-May-29 16:57N 47°41' W 122°24'0 0.0
2017-May-29 16:27N 47°41' W 122°24'0 0.0
2017-May-29 16:00N 47°41' W 122°24'0 0.0
2017-May-29 15:30N 47°41' W 122°24'0 0.0
2017-May-29 15:00N 47°41' W 122°24'0 0.0
2017-May-29 14:30N 47°41' W 122°24'0 0.0
2017-May-29 13:30N 47°41' W 122°24'0 0.0
2017-May-29 12:57N 47°41' W 122°24'0 0.0
2017-May-29 12:30N 47°41' W 122°24'0 0.0
2017-May-29 12:00N 47°41' W 122°24'0 0.0
2017-May-29 11:30N 47°41' W 122°24'0 0.0
2017-May-29 11:00N 47°41' W 122°24'0 0.0
2017-May-29 10:27N 47°41' W 122°24'0 0.0
2017-May-29 10:00N 47°41' W 122°24'0 0.0
2017-May-29 09:30N 47°41' W 122°24'0 0.0
2017-May-29 09:00N 47°41' W 122°24'0 0.0
2017-May-29 08:30N 47°41' W 122°24'0 0.0
2017-May-29 08:00N 47°41' W 122°24'0 0.0
2017-May-29 07:30N 47°41' W 122°24'0 0.0
2017-May-29 07:00N 47°41' W 122°24'0 0.0
2017-May-29 06:27N 47°41' W 122°24'0 0.0
2017-May-29 06:00N 47°41' W 122°24'0 0.0
2017-May-29 05:30N 47°41' W 122°24'0 0.0
2017-May-29 05:00N 47°41' W 122°24'0 0.0
2017-May-29 04:30N 47°41' W 122°24'0 0.0
2017-May-29 04:00N 47°41' W 122°24'0 0.0
2017-May-29 03:30N 47°41' W 122°24'0 0.0
2017-May-29 03:00N 47°41' W 122°24'0 0.0
2017-May-29 02:30N 47°41' W 122°24'0 0.0
2017-May-29 02:00N 47°41' W 122°24'0 0.0
2017-May-29 01:30N 47°41' W 122°24'0 0.0
2017-May-29 01:00N 47°41' W 122°24'0 0.0
2017-May-29 00:30N 47°41' W 122°24'0 0.0
2017-May-29 00:00N 47°41' W 122°24'0 0.0
2017-May-28 23:30N 47°41' W 122°24'0 0.0
2017-May-28 23:00N 47°41' W 122°24'0 0.0
2017-May-28 22:30N 47°41' W 122°24'0 0.0
2017-May-28 22:00N 47°41' W 122°24'0 0.0
2017-May-28 21:30N 47°41' W 122°24'0 0.0
2017-May-28 21:00N 47°41' W 122°24'0 0.0
2017-May-28 20:30N 47°41' W 122°24'0 0.0
2017-May-28 20:00N 47°41' W 122°24'0 0.0
2017-May-28 19:30N 47°41' W 122°24'0 0.0
2017-May-28 19:00N 47°41' W 122°24'0 0.0
2017-May-28 18:30N 47°41' W 122°24'0 0.0
2017-May-28 18:01N 47°41' W 122°24'2 4.4
2017-May-28 17:31N 47°43' W 122°26'714.4
2017-May-28 17:00N 47°50' W 122°28'611.7
2017-May-28 16:30N 47°55' W 122°31'1810.9
2017-May-28 14:54N 48°10' W 122°46'1212.7
2017-May-28 13:59N 48°12' W 123°03'613.1
2017-May-28 13:30N 48°12' W 123°13'813.4
2017-May-28 12:54N 48°12' W 123°25'613.8
2017-May-28 12:30N 48°12' W 123°33'1013.8
2017-May-28 11:47N 48°12' W 123°48'414.1
2017-May-28 11:28N 48°13' W 123°54'815.1
2017-May-28 10:56N 48°15' W 124°06'613.7
2017-May-28 10:30N 48°18' W 124°14'713.4
2017-May-28 10:00N 48°21' W 124°23'713.5
2017-May-28 09:30N 48°23' W 124°32'713.6
2017-May-28 09:00N 48°26' W 124°42'611.4
2017-May-28 08:30N 48°22' W 124°49'713.7
2017-May-28 08:00N 48°16' W 124°51'713.3
2017-May-28 07:30N 48°09' W 124°53'712.9
2017-May-28 07:00N 48°03' W 124°54'713.1
2017-May-28 06:29N 47°56' W 124°54'612.9
2017-May-28 05:59N 47°50' W 124°52'612.6
2017-May-28 05:31N 47°44' W 124°50'612.4
2017-May-28 05:00N 47°38' W 124°48'712.8
2017-May-28 04:25N 47°30' W 124°45'812.4
2017-May-28 03:47N 47°23' W 124°43'2683.6
2017-May-28 03:29N 46°59' W 124°30'715.1
2017-May-28 03:00N 46°51' W 124°30'1629.4
2017-May-28 02:26N 47°08' W 124°33'612.9
2017-May-28 02:00N 47°02' W 124°31'612.9
2017-May-28 01:30N 46°56' W 124°29'612.9
2017-May-28 01:00N 46°49' W 124°30'611.4
2017-May-28 00:30N 46°44' W 124°28'611.7
2017-May-28 00:00N 46°38' W 124°26'612.0
2017-May-27 23:30N 46°32' W 124°25'612.0
2017-May-27 23:00N 46°26' W 124°24'612.2
2017-May-27 22:30N 46°20' W 124°23'713.2
2017-May-27 22:00N 46°13' W 124°23'713.0
2017-May-27 21:30N 46°07' W 124°23'612.8
2017-May-27 21:00N 46°01' W 124°23'612.2
2017-May-27 20:30N 45°54' W 124°23'611.9
2017-May-27 20:00N 45°49' W 124°23'612.0
2017-May-27 19:30N 45°42' W 124°23'612.4
2017-May-27 19:00N 45°36' W 124°23'612.3
2017-May-27 18:30N 45°30' W 124°23'612.5
2017-May-27 18:00N 45°24' W 124°23'612.0
2017-May-27 17:30N 45°18' W 124°24'712.3
2017-May-27 16:56N 45°11' W 124°25'612.3
2017-May-27 16:28N 45°05' W 124°25'612.4
2017-May-27 16:00N 44°59' W 124°26'612.1
2017-May-27 15:30N 44°53' W 124°26'911.9
2017-May-27 14:46N 44°45' W 124°27'  
Track history (hours):
 
Tides and Currents Weather Stations Pressure Air Temp Water Temp Dewpoint Dewpoint Depression Visibility Wind Speed Wind Dir Waves Ship Positions

Mary Alice II

Owner: Lakeshore Drive Investment, Rollins, MT. More information available from US FCC via Universal Licensing System and Coast Guard Vessel Documentation Center.

Last reported at 2017-Jun-03 22:18 UTC. Time now 2017-Jul-22 00:29 UTC.
Position N 52°09' W 128°08'.
Warning: this ship's position is 48 days out of date.

Length 40 m; draft 2.2 m.

Type: Pleasure craft. MMSI: 367344710.

Date/timePositionNaut miles runAvg speedWind from/ knotsBaromVisibWave heightAir tempDewpointWater temp
2017-Jun-03 22:18N 52°09' W 128°08'910.9
2017-Jun-03 21:27N 52°04' W 127°55'611.9
2017-Jun-03 20:58N 51°58' W 127°56'612.7
2017-Jun-03 20:30N 51°52' W 127°56'713.4
2017-Jun-03 20:00N 51°46' W 127°56'613.0
2017-Jun-03 19:31N 51°39' W 127°54'713.2
2017-Jun-03 19:00N 51°33' W 127°51'2013.3
2017-Jun-03 17:28N 51°12' W 127°51'613.6
2017-Jun-03 17:00N 51°06' W 127°50'713.9
2017-Jun-03 16:30N 50°60' W 127°46'612.9
2017-Jun-03 16:00N 50°55' W 127°39'713.6
2017-Jun-03 15:30N 50°51' W 127°30'713.2
2017-Jun-03 15:00N 50°47' W 127°22'1512.9
2017-Jun-03 13:52N 50°37' W 127°05'1 0.1
2017-Jun-02 20:35N 50°36' W 127°05'0 2.7
2017-Jun-02 20:29N 50°36' W 127°05'4 8.1
2017-Jun-02 20:00N 50°36' W 126°59'812.6
2017-Jun-02 19:23N 50°33' W 126°47'5312.4
2017-Jun-02 15:05N 50°20' W 125°26'212.0
2017-Jun-02 14:57N 50°19' W 125°25'1112.1
2017-Jun-02 14:00N 50°08' W 125°21'612.6
2017-Jun-02 13:30N 50°04' W 125°14'0 0.0
2017-Jun-02 12:59N 50°04' W 125°14'0 0.0
2017-Jun-02 12:26N 50°04' W 125°14'0 0.0
2017-Jun-02 11:56N 50°04' W 125°14'0 0.0
2017-Jun-02 11:26N 50°04' W 125°14'0 0.0
2017-Jun-02 10:59N 50°04' W 125°14'0 0.0
2017-Jun-02 10:26N 50°04' W 125°14'0 0.0
2017-Jun-02 09:56N 50°04' W 125°14'0 0.0
2017-Jun-02 09:29N 50°04' W 125°14'0 0.0
2017-Jun-02 08:59N 50°04' W 125°14'0 0.0
2017-Jun-02 08:29N 50°04' W 125°14'0 0.0
2017-Jun-02 07:59N 50°04' W 125°14'0 0.0
2017-Jun-02 07:29N 50°04' W 125°14'0 0.0
2017-Jun-02 06:59N 50°04' W 125°14'0 0.0
2017-Jun-02 06:29N 50°04' W 125°14'0 0.0
2017-Jun-02 05:59N 50°04' W 125°14'0 0.0
2017-Jun-02 05:29N 50°04' W 125°14'0 0.0
2017-Jun-02 04:59N 50°04' W 125°14'0 0.0
2017-Jun-02 04:29N 50°04' W 125°14'0 0.0
2017-Jun-02 03:59N 50°04' W 125°14'0 0.0
2017-Jun-02 03:26N 50°04' W 125°14'0 0.0
2017-Jun-02 02:56N 50°04' W 125°14'0 0.0
2017-Jun-02 02:29N 50°04' W 125°14'0 0.0
2017-Jun-02 01:59N 50°04' W 125°14'0 0.0
2017-Jun-02 01:26N 50°04' W 125°14'0 0.0
2017-Jun-02 00:56N 50°04' W 125°14'0 0.0
2017-Jun-02 00:26N 50°04' W 125°14'0 0.0
2017-Jun-01 23:59N 50°04' W 125°14'0 0.0
2017-Jun-01 23:29N 50°04' W 125°14'0 0.0
2017-Jun-01 22:56N 50°04' W 125°14'0 0.0
2017-Jun-01 22:29N 50°04' W 125°14'0 0.0
2017-Jun-01 22:00N 50°04' W 125°14'1 1.5
2017-Jun-01 21:30N 50°04' W 125°15'714.5
2017-Jun-01 21:00N 49°57' W 125°10'713.2
2017-Jun-01 20:30N 49°53' W 125°02'612.7
2017-Jun-01 20:00N 49°48' W 124°55'713.5
2017-Jun-01 19:30N 49°44' W 124°47'713.5
2017-Jun-01 19:00N 49°41' W 124°38'713.3
2017-Jun-01 18:29N 49°37' W 124°30'52 2.6
2017-May-31 22:19N 49°03' W 123°29'414.1
2017-May-31 22:00N 49°00' W 123°24'1213.4
2017-May-31 21:07N 48°53' W 123°09'213.2
2017-May-31 20:59N 48°52' W 123°08'611.5
2017-May-31 20:28N 48°47' W 123°01'612.1
2017-May-31 20:00N 48°44' W 123°08'611.2
2017-May-31 19:30N 48°41' W 123°15'611.5
2017-May-31 19:00N 48°35' W 123°13'510.8
2017-May-31 18:30N 48°30' W 123°09'611.2
2017-May-31 18:00N 48°26' W 123°04'1012.9
2017-May-31 17:14N 48°18' W 122°56'512.6
2017-May-31 16:52N 48°14' W 122°52'1612.1
2017-May-31 15:33N 48°01' W 122°37'212.9
2017-May-31 15:24N 47°60' W 122°35'512.4
2017-May-31 15:00N 47°56' W 122°30'612.8
2017-May-31 14:30N 47°50' W 122°27'10 9.6
2017-May-31 13:30N 47°41' W 122°24'0 0.0
2017-May-31 13:00N 47°41' W 122°24'0 0.0
2017-May-31 12:30N 47°41' W 122°24'0 0.0
2017-May-31 12:00N 47°41' W 122°24'0 0.0
2017-May-31 11:27N 47°41' W 122°24'0 0.0
2017-May-31 10:57N 47°41' W 122°24'0 0.0
2017-May-31 10:30N 47°41' W 122°24'0 0.0
2017-May-31 10:00N 47°41' W 122°24'0 0.0
2017-May-31 09:30N 47°41' W 122°24'0 0.0
2017-May-31 09:00N 47°41' W 122°24'0 0.0
2017-May-31 08:30N 47°41' W 122°24'0 0.0
2017-May-31 08:00N 47°41' W 122°24'0 0.0
2017-May-31 07:30N 47°41' W 122°24'0 0.0
2017-May-31 07:00N 47°41' W 122°24'0 0.0
2017-May-31 06:30N 47°41' W 122°24'0 0.0
2017-May-31 06:00N 47°41' W 122°24'0 0.0
2017-May-31 05:30N 47°41' W 122°24'0 0.0
2017-May-31 05:00N 47°41' W 122°24'0 0.0
2017-May-31 04:30N 47°41' W 122°24'0 0.0
2017-May-31 04:00N 47°41' W 122°24'0 0.0
2017-May-31 03:30N 47°41' W 122°24'0 0.0
2017-May-31 03:00N 47°41' W 122°24'0 0.0
2017-May-31 02:30N 47°41' W 122°24'0 0.0
2017-May-31 02:00N 47°41' W 122°24'0 0.0
2017-May-31 01:30N 47°41' W 122°24'0 0.0
2017-May-31 01:00N 47°41' W 122°24'0 0.0
2017-May-31 00:30N 47°41' W 122°24'0 0.0
2017-May-31 00:00N 47°41' W 122°24'0 0.0
2017-May-30 23:30N 47°41' W 122°24'0 0.0
2017-May-30 23:00N 47°41' W 122°24'0 0.0
2017-May-30 22:30N 47°41' W 122°24'0 0.0
2017-May-30 22:00N 47°41' W 122°24'0 0.0
2017-May-30 21:30N 47°41' W 122°24'0 0.0
2017-May-30 21:00N 47°41' W 122°24'0 0.1
2017-May-30 20:30N 47°41' W 122°24'0 0.0
2017-May-30 20:00N 47°41' W 122°24'0 0.0
2017-May-30 19:30N 47°41' W 122°24'0 0.0
2017-May-30 19:00N 47°41' W 122°24'0 0.0
2017-May-30 18:30N 47°41' W 122°24'0 0.0
2017-May-30 18:00N 47°41' W 122°24'0 0.0
2017-May-30 17:30N 47°41' W 122°24'0 0.0
2017-May-30 17:00N 47°41' W 122°24'0 0.0
2017-May-30 16:30N 47°41' W 122°24'0 0.0
2017-May-30 16:00N 47°41' W 122°24'0 0.1
2017-May-30 15:30N 47°41' W 122°24'0 0.0
2017-May-30 15:00N 47°41' W 122°24'0 0.0
2017-May-30 14:00N 47°41' W 122°24'0 0.0
2017-May-30 13:30N 47°41' W 122°24'0 0.0
2017-May-30 13:00N 47°41' W 122°24'0 0.0
2017-May-30 12:30N 47°41' W 122°24'0 0.0
2017-May-30 12:00N 47°41' W 122°24'0 0.0
2017-May-30 11:30N 47°41' W 122°24'0 0.0
2017-May-30 11:00N 47°41' W 122°24'0 0.0
2017-May-30 10:30N 47°41' W 122°24'0 0.0
2017-May-30 10:00N 47°41' W 122°24'0 0.0
2017-May-30 09:30N 47°41' W 122°24'0 0.0
2017-May-30 09:00N 47°41' W 122°24'0 0.0
2017-May-30 08:30N 47°41' W 122°24'0 0.0
2017-May-30 08:00N 47°41' W 122°24'0 0.0
2017-May-30 07:30N 47°41' W 122°24'0 0.0
2017-May-30 07:00N 47°41' W 122°24'0 0.0
2017-May-30 06:30N 47°41' W 122°24'0 0.0
2017-May-30 06:00N 47°41' W 122°24'0 0.0
2017-May-30 05:30N 47°41' W 122°24'0 0.0
2017-May-30 05:00N 47°41' W 122°24'0 0.0
2017-May-30 04:30N 47°41' W 122°24'0 0.0
2017-May-30 04:00N 47°41' W 122°24'0 0.0
2017-May-30 03:30N 47°41' W 122°24'0 0.0
2017-May-30 03:00N 47°41' W 122°24'0 0.0
2017-May-30 02:30N 47°41' W 122°24'0 0.0
2017-May-30 02:00N 47°41' W 122°24'0 0.0
2017-May-30 01:30N 47°41' W 122°24'0 0.0
2017-May-30 01:00N 47°41' W 122°24'0 0.0
2017-May-30 00:30N 47°41' W 122°24'0 0.0
2017-May-30 00:00N 47°41' W 122°24'0 0.0
2017-May-29 23:30N 47°41' W 122°24'0 0.0
2017-May-29 23:00N 47°41' W 122°24'0 0.0
2017-May-29 22:30N 47°41' W 122°24'0 0.0
2017-May-29 22:00N 47°41' W 122°24'0 0.0
2017-May-29 21:30N 47°41' W 122°24'0 0.0
2017-May-29 21:00N 47°41' W 122°24'0 0.0
2017-May-29 20:30N 47°41' W 122°24'0 0.0
2017-May-29 20:00N 47°41' W 122°24'0 0.0
2017-May-29 19:30N 47°41' W 122°24'0 0.0
2017-May-29 19:00N 47°41' W 122°24'0 0.0
2017-May-29 18:30N 47°41' W 122°24'0 0.0
2017-May-29 18:00N 47°41' W 122°24'0 0.0
2017-May-29 17:30N 47°41' W 122°24'0 0.0
2017-May-29 16:57N 47°41' W 122°24'0 0.0
2017-May-29 16:27N 47°41' W 122°24'0 0.0
2017-May-29 16:00N 47°41' W 122°24'0 0.0
2017-May-29 15:30N 47°41' W 122°24'0 0.0
2017-May-29 15:00N 47°41' W 122°24'0 0.0
2017-May-29 14:30N 47°41' W 122°24'0 0.0
2017-May-29 13:30N 47°41' W 122°24'0 0.0
2017-May-29 12:57N 47°41' W 122°24'0 0.0
2017-May-29 12:30N 47°41' W 122°24'0 0.0
2017-May-29 12:00N 47°41' W 122°24'0 0.0
2017-May-29 11:30N 47°41' W 122°24'0 0.0
2017-May-29 11:00N 47°41' W 122°24'0 0.0
2017-May-29 10:27N 47°41' W 122°24'0 0.0
2017-May-29 10:00N 47°41' W 122°24'0 0.0
2017-May-29 09:30N 47°41' W 122°24'0 0.0
2017-May-29 09:00N 47°41' W 122°24'0 0.0
2017-May-29 08:30N 47°41' W 122°24'0 0.0
2017-May-29 08:00N 47°41' W 122°24'0 0.0
2017-May-29 07:30N 47°41' W 122°24'0 0.0
2017-May-29 07:00N 47°41' W 122°24'0 0.0
2017-May-29 06:27N 47°41' W 122°24'0 0.0
2017-May-29 06:00N 47°41' W 122°24'0 0.0
2017-May-29 05:30N 47°41' W 122°24'0 0.0
2017-May-29 05:00N 47°41' W 122°24'0 0.0
2017-May-29 04:30N 47°41' W 122°24'0 0.0
2017-May-29 04:00N 47°41' W 122°24'0 0.0
2017-May-29 03:30N 47°41' W 122°24'0 0.0
2017-May-29 03:00N 47°41' W 122°24'0 0.0
2017-May-29 02:30N 47°41' W 122°24'0 0.0
2017-May-29 02:00N 47°41' W 122°24'0 0.0
2017-May-29 01:30N 47°41' W 122°24'0 0.0
2017-May-29 01:00N 47°41' W 122°24'0 0.0
2017-May-29 00:30N 47°41' W 122°24'0 0.0
2017-May-29 00:00N 47°41' W 122°24'0 0.0
2017-May-28 23:30N 47°41' W 122°24'0 0.0
2017-May-28 23:00N 47°41' W 122°24'0 0.0
2017-May-28 22:30N 47°41' W 122°24'0 0.0
2017-May-28 22:00N 47°41' W 122°24'0 0.0
2017-May-28 21:30N 47°41' W 122°24'0 0.0
2017-May-28 21:00N 47°41' W 122°24'0 0.0
2017-May-28 20:30N 47°41' W 122°24'0 0.0
2017-May-28 20:00N 47°41' W 122°24'0 0.0
2017-May-28 19:30N 47°41' W 122°24'0 0.0
2017-May-28 19:00N 47°41' W 122°24'0 0.0
2017-May-28 18:30N 47°41' W 122°24'0 0.0
2017-May-28 18:01N 47°41' W 122°24'2 4.4
2017-May-28 17:31N 47°43' W 122°26'714.4
2017-May-28 17:00N 47°50' W 122°28'611.7
2017-May-28 16:30N 47°55' W 122°31'1810.9
2017-May-28 14:54N 48°10' W 122°46'1212.7
2017-May-28 13:59N 48°12' W 123°03'613.1
2017-May-28 13:30N 48°12' W 123°13'813.4
2017-May-28 12:54N 48°12' W 123°25'613.8
2017-May-28 12:30N 48°12' W 123°33'1013.8
2017-May-28 11:47N 48°12' W 123°48'414.1
2017-May-28 11:28N 48°13' W 123°54'815.1
2017-May-28 10:56N 48°15' W 124°06'613.7
2017-May-28 10:30N 48°18' W 124°14'713.4
2017-May-28 10:00N 48°21' W 124°23'713.5
2017-May-28 09:30N 48°23' W 124°32'713.6
2017-May-28 09:00N 48°26' W 124°42'611.4
2017-May-28 08:30N 48°22' W 124°49'713.7
2017-May-28 08:00N 48°16' W 124°51'713.3
2017-May-28 07:30N 48°09' W 124°53'712.9
2017-May-28 07:00N 48°03' W 124°54'713.1
2017-May-28 06:29N 47°56' W 124°54'612.9
2017-May-28 05:59N 47°50' W 124°52'612.6
2017-May-28 05:31N 47°44' W 124°50'612.4
2017-May-28 05:00N 47°38' W 124°48'712.8
2017-May-28 04:25N 47°30' W 124°45'812.4
2017-May-28 03:47N 47°23' W 124°43'2683.6
2017-May-28 03:29N 46°59' W 124°30'715.1
2017-May-28 03:00N 46°51' W 124°30'1629.4
2017-May-28 02:26N 47°08' W 124°33'612.9
2017-May-28 02:00N 47°02' W 124°31'612.9
2017-May-28 01:30N 46°56' W 124°29'612.9
2017-May-28 01:00N 46°49' W 124°30'611.4
2017-May-28 00:30N 46°44' W 124°28'611.7
2017-May-28 00:00N 46°38' W 124°26'612.0
2017-May-27 23:30N 46°32' W 124°25'612.0
2017-May-27 23:00N 46°26' W 124°24'612.2
2017-May-27 22:30N 46°20' W 124°23'713.2
2017-May-27 22:00N 46°13' W 124°23'713.0
2017-May-27 21:30N 46°07' W 124°23'612.8
2017-May-27 21:00N 46°01' W 124°23'612.2
2017-May-27 20:30N 45°54' W 124°23'611.9
2017-May-27 20:00N 45°49' W 124°23'612.0
2017-May-27 19:30N 45°42' W 124°23'612.4
2017-May-27 19:00N 45°36' W 124°23'612.3
2017-May-27 18:30N 45°30' W 124°23'612.5
2017-May-27 18:00N 45°24' W 124°23'612.0
2017-May-27 17:30N 45°18' W 124°24'712.3
2017-May-27 16:56N 45°11' W 124°25'612.3
2017-May-27 16:28N 45°05' W 124°25'612.4
2017-May-27 16:00N 44°59' W 124°26'612.1
2017-May-27 15:30N 44°53' W 124°26'911.9
2017-May-27 14:46N 44°45' W 124°27'  

Dump ship's entire track history